createdAt,value
2023-02-06T00:04:45.742Z,102926.88
2023-02-06T00:09:48.601Z,102922.06
2023-02-06T00:14:51.585Z,102916.94
2023-02-06T00:19:54.388Z,102917.33
2023-02-06T00:24:57.358Z,102920.00
2023-02-06T00:30:00.204Z,102925.77
2023-02-06T00:36:00.423Z,102921.77
2023-02-06T00:41:03.709Z,102924.34
2023-02-06T00:46:06.600Z,102918.34
2023-02-06T00:51:10.210Z,102920.02
2023-02-06T00:56:13.158Z,102912.10
2023-02-06T01:01:16.233Z,102915.80
2023-02-06T01:06:19.416Z,102912.60
2023-02-06T01:11:24.832Z,102905.48
2023-02-06T01:16:28.132Z,102903.38
2023-02-06T01:21:31.074Z,102904.48
2023-02-06T01:26:34.322Z,102898.98
2023-02-06T01:31:37.264Z,102895.17
2023-02-06T01:36:40.215Z,102892.57
2023-02-06T01:41:43.195Z,102887.85
2023-02-06T01:46:47.976Z,102882.94
2023-02-06T01:51:56.005Z,102878.54
2023-02-06T01:57:02.997Z,102872.59
2023-02-06T02:02:06.005Z,102870.86
2023-02-06T02:07:27.483Z,102871.64
2023-02-06T02:12:30.534Z,102878.79
2023-02-06T02:18:15.915Z,102878.34
2023-02-06T02:23:38.976Z,102878.50
2023-02-06T02:29:26.216Z,102877.59
2023-02-06T02:35:09.769Z,102878.10
2023-02-06T02:40:37.245Z,102882.75
2023-02-06T02:45:46.074Z,102888.73
2023-02-06T02:50:48.935Z,102893.73
2023-02-06T02:55:52.001Z,102905.67
2023-02-06T03:01:07.519Z,102904.98
2023-02-06T03:06:44.740Z,102900.16
2023-02-06T03:12:05.188Z,102897.69
2023-02-06T03:17:11.317Z,102891.73
2023-02-06T03:22:14.669Z,102888.56
2023-02-06T03:27:17.516Z,102891.23
2023-02-06T03:32:31.645Z,102886.45
2023-02-06T03:37:35.015Z,102885.34
2023-02-06T03:42:41.462Z,102883.75
2023-02-06T03:47:44.659Z,102882.81
2023-02-06T03:53:10.070Z,102879.63
2023-02-06T03:58:14.034Z,102875.67
2023-02-06T04:03:17.339Z,102890.03
2023-02-06T04:08:20.296Z,102887.89
2023-02-06T04:13:25.349Z,102888.15
2023-02-06T04:18:28.292Z,102899.70
2023-02-06T04:23:31.499Z,102894.27
2023-02-06T04:28:34.350Z,102889.34
2023-02-06T04:33:37.235Z,102880.55
2023-02-06T04:38:40.107Z,102884.60
2023-02-06T04:43:42.950Z,102888.68
2023-02-06T04:48:45.934Z,102885.82
2023-02-06T04:53:48.779Z,102874.81
2023-02-06T04:58:51.772Z,102873.05
2023-02-06T05:03:54.616Z,102872.00
2023-02-06T05:08:59.205Z,102874.33
2023-02-06T05:14:02.061Z,102882.12
2023-02-06T05:19:04.978Z,102890.60
2023-02-06T05:24:07.900Z,102896.10
2023-02-06T05:29:10.873Z,102900.55
2023-02-06T05:34:13.757Z,102902.04
2023-02-06T05:39:17.324Z,102898.39
2023-02-06T05:44:20.286Z,102897.41
2023-02-06T05:49:23.292Z,102900.01
2023-02-06T05:54:26.326Z,102904.60
2023-02-06T05:59:29.276Z,102905.55
2023-02-06T06:04:32.367Z,102906.73
2023-02-06T06:09:35.394Z,102907.40
2023-02-06T06:14:38.296Z,102906.81
2023-02-06T06:19:41.311Z,102904.30
2023-02-06T06:24:44.193Z,102900.80
2023-02-06T06:29:47.090Z,102904.39
2023-02-06T06:34:50.178Z,102898.81
2023-02-06T06:39:53.049Z,102903.73
2023-02-06T06:44:57.280Z,102911.63
2023-02-06T06:50:00.156Z,102916.44
2023-02-06T06:55:03.249Z,102922.40
2023-02-06T07:00:09.269Z,102924.09
2023-02-06T07:05:12.150Z,102928.70
2023-02-06T07:10:15.341Z,102934.52
2023-02-06T07:15:18.368Z,102936.70
2023-02-06T07:20:21.780Z,102951.91
2023-02-06T07:25:24.644Z,102957.74
2023-02-06T07:30:27.572Z,102950.65
2023-02-06T07:35:30.770Z,102954.05
2023-02-06T07:40:44.808Z,102946.38
2023-02-06T07:45:48.578Z,102950.02
2023-02-06T07:50:52.605Z,102945.35
2023-02-06T07:55:55.492Z,102943.49
2023-02-06T08:01:00.926Z,102940.49
2023-02-06T08:06:14.796Z,102935.79
2023-02-06T08:11:20.602Z,102936.52
2023-02-06T08:16:23.894Z,102939.95
2023-02-06T08:21:26.954Z,102948.79
2023-02-06T08:26:30.229Z,102945.89
2023-02-06T08:31:36.087Z,102951.23
2023-02-06T08:36:39.128Z,102949.55
2023-02-06T08:41:44.044Z,102943.98
2023-02-06T08:46:47.867Z,102943.96
2023-02-06T08:51:50.795Z,102940.83
2023-02-06T08:56:56.903Z,102937.94
2023-02-06T09:01:59.756Z,102942.38
2023-02-06T09:07:02.716Z,102941.09
2023-02-06T09:12:06.128Z,102934.16
2023-02-06T09:17:10.124Z,102940.00
2023-02-06T09:22:35.916Z,102947.26
2023-02-06T09:27:40.021Z,102946.77
2023-02-06T09:32:43.396Z,102947.55
2023-02-06T09:37:46.317Z,102944.33
2023-02-06T09:42:49.231Z,102948.34
2023-02-06T09:47:58.632Z,102948.95
2023-02-06T09:53:32.954Z,102950.39
2023-02-06T09:59:30.466Z,102953.21
2023-02-06T10:04:40.033Z,102947.91
2023-02-06T10:09:53.629Z,102938.94
2023-02-06T10:15:04.966Z,102936.92
2023-02-06T10:20:18.957Z,102936.52
2023-02-06T10:26:03.714Z,102927.61
2023-02-06T10:31:25.120Z,102924.06
2023-02-06T10:37:11.438Z,102923.66
2023-02-06T10:42:49.532Z,102927.73
2023-02-06T10:47:59.445Z,102916.52
2023-02-06T10:53:12.737Z,102910.18
2023-02-06T10:58:19.068Z,102908.42
2023-02-06T11:03:25.966Z,102914.68
2023-02-06T11:08:34.991Z,102908.07
2023-02-06T11:13:37.830Z,102902.53
2023-02-06T11:18:43.513Z,102902.14
2023-02-06T11:23:48.017Z,102904.85
2023-02-06T11:28:55.536Z,102910.98
2023-02-06T11:33:58.528Z,102915.27
2023-02-06T11:39:09.006Z,102918.92
2023-02-06T11:44:13.015Z,102918.66
2023-02-06T11:49:29.212Z,102927.94
2023-02-06T11:54:36.213Z,102933.86
2023-02-06T12:00:20.846Z,102935.46
2023-02-06T12:05:26.848Z,102940.17
2023-02-06T12:10:34.852Z,102947.48
2023-02-06T12:15:48.117Z,102952.42
2023-02-06T12:21:13.794Z,102941.27
2023-02-06T12:26:20.135Z,102935.80
2023-02-06T12:31:44.301Z,102934.05
2023-02-06T12:37:10.773Z,102931.91
2023-02-06T12:42:55.537Z,102926.73
2023-02-06T12:48:21.961Z,102926.46
2023-02-06T12:53:39.044Z,102927.10
2023-02-06T12:58:44.918Z,102932.20
2023-02-06T13:04:00.144Z,102933.98
2023-02-06T13:09:05.874Z,102937.86
2023-02-06T13:14:26.712Z,102939.45
2023-02-06T13:19:51.259Z,102943.86
2023-02-06T13:24:54.326Z,102944.65
2023-02-06T13:29:57.636Z,102937.90
2023-02-06T13:35:20.107Z,102935.35
2023-02-06T13:40:45.812Z,102929.23
2023-02-06T13:46:04.717Z,102934.55
2023-02-06T13:51:30.499Z,102930.77
2023-02-06T13:56:58.281Z,102913.63
2023-02-06T14:02:29.965Z,102916.52
2023-02-06T14:08:08.364Z,102928.85
2023-02-06T14:13:39.083Z,102936.23
2023-02-06T14:19:04.441Z,102922.91
2023-02-06T14:24:35.861Z,102922.76
2023-02-06T14:30:18.033Z,102920.67
2023-02-06T14:36:15.097Z,102914.70
2023-02-06T14:41:17.954Z,102913.47
2023-02-06T14:46:24.089Z,102926.95
2023-02-06T14:51:31.870Z,102926.88
2023-02-06T14:56:38.480Z,102934.83
2023-02-06T15:01:44.715Z,102940.73
2023-02-06T15:06:56.711Z,102940.19
2023-02-06T15:12:15.590Z,102944.02
2023-02-06T15:17:21.949Z,102936.98
2023-02-06T15:22:29.865Z,102935.55
2023-02-06T15:27:35.162Z,102938.11
2023-02-06T15:32:39.999Z,102945.11
2023-02-06T15:37:42.881Z,102941.64
2023-02-06T15:42:47.182Z,102937.71
2023-02-06T15:47:51.977Z,102940.23
2023-02-06T15:52:55.584Z,102940.23
2023-02-06T15:57:59.527Z,102951.29
2023-02-06T16:03:06.853Z,102967.73
2023-02-06T16:08:17.599Z,102978.87
2023-02-06T16:13:25.326Z,102977.35
2023-02-06T16:18:34.730Z,102982.39
2023-02-06T16:23:49.684Z,102990.71
2023-02-06T16:29:00.931Z,102995.89
2023-02-06T16:34:30.536Z,102994.81
2023-02-06T16:39:33.472Z,102990.73
2023-02-06T16:44:44.598Z,102994.98
2023-02-06T16:49:48.623Z,103000.17
2023-02-06T16:54:51.730Z,103004.59
2023-02-06T16:59:55.337Z,103003.46
2023-02-06T17:04:58.290Z,103005.52
2023-02-06T17:10:01.966Z,103009.98
2023-02-06T17:15:06.670Z,103015.84
2023-02-06T17:20:35.222Z,103012.79
2023-02-06T17:25:39.418Z,102996.19
2023-02-06T17:30:43.048Z,102996.49
2023-02-06T17:35:47.957Z,102996.77
2023-02-06T17:40:50.975Z,102993.86
2023-02-06T17:45:54.125Z,102993.11
2023-02-06T17:50:57.019Z,103000.45
2023-02-06T17:56:13.235Z,103006.52
2023-02-06T18:01:21.520Z,103005.77
2023-02-06T18:06:24.541Z,102997.58
2023-02-06T18:11:28.309Z,102995.92
2023-02-06T18:16:36.861Z,103008.77
2023-02-06T18:21:39.629Z,103016.81
2023-02-06T18:26:43.196Z,103013.06
2023-02-06T18:31:46.128Z,103000.41
2023-02-06T18:36:51.353Z,103000.92
2023-02-06T18:42:13.141Z,103004.30
2023-02-06T18:47:17.328Z,103006.04
2023-02-06T18:52:20.251Z,103014.43
2023-02-06T18:57:23.144Z,103014.56
2023-02-06T19:02:26.507Z,103026.19
2023-02-06T19:07:30.231Z,103035.39
2023-02-06T19:12:33.184Z,103026.08
2023-02-06T19:17:36.924Z,103032.16
2023-02-06T19:22:39.901Z,103038.23
2023-02-06T19:27:43.080Z,103040.45
2023-02-06T19:32:46.314Z,103041.86
2023-02-06T19:37:49.204Z,103044.61
2023-02-06T19:42:52.044Z,103039.70
2023-02-06T19:47:54.952Z,103035.75
2023-02-06T19:52:57.772Z,103034.05
2023-02-06T19:58:01.110Z,103035.80
2023-02-06T20:03:04.195Z,103035.04
2023-02-06T20:08:07.196Z,103031.55
2023-02-06T20:13:10.076Z,103042.05
2023-02-06T20:18:13.341Z,103034.33
2023-02-06T20:23:16.371Z,103039.58
2023-02-06T20:28:19.386Z,103032.14
2023-02-06T20:33:22.338Z,103025.25
2023-02-06T20:38:25.273Z,103025.95
2023-02-06T20:43:28.706Z,103032.22
2023-02-06T20:48:32.063Z,103030.67
2023-02-06T20:53:34.891Z,103039.86
2023-02-06T20:58:38.615Z,103048.85
2023-02-06T21:03:41.789Z,103062.64
2023-02-06T21:08:46.899Z,103064.58
2023-02-06T21:13:49.785Z,103050.75
2023-02-06T21:18:55.042Z,103055.94
2023-02-06T21:23:58.001Z,103055.64
2023-02-06T21:29:02.540Z,103059.93
2023-02-06T21:34:15.881Z,103067.23
2023-02-06T21:39:22.287Z,103065.70
2023-02-06T21:44:26.539Z,103055.78
2023-02-06T21:49:29.390Z,103054.70
2023-02-06T21:54:32.244Z,103055.54
2023-02-06T21:59:36.649Z,103056.65
2023-02-06T22:04:39.622Z,103055.56
2023-02-06T22:09:42.710Z,103052.35
2023-02-06T22:14:45.688Z,103052.81
2023-02-06T22:19:50.219Z,103041.55
2023-02-06T22:24:53.313Z,103036.20
2023-02-06T22:29:56.525Z,103034.46
2023-02-06T22:35:00.101Z,103024.59
2023-02-06T22:40:03.106Z,103020.19
2023-02-06T22:45:07.458Z,103029.74
2023-02-06T22:50:10.274Z,103016.02
2023-02-06T22:55:13.740Z,103014.15
2023-02-06T23:00:18.647Z,103012.65
2023-02-06T23:05:21.602Z,103014.45
2023-02-06T23:10:24.545Z,103022.65
2023-02-06T23:15:27.397Z,103015.67
2023-02-06T23:20:30.327Z,103021.02
2023-02-06T23:25:33.918Z,103034.27
2023-02-06T23:30:36.800Z,103025.41
2023-02-06T23:35:41.259Z,103017.30
2023-02-06T23:40:45.521Z,103016.75
2023-02-06T23:45:48.497Z,103017.36
2023-02-06T23:50:52.622Z,103016.45
2023-02-06T23:55:55.509Z,103008.42
